Jonesburg, Louisiana
Current Conditions -  °F | °C
As of 3:53 AM on Monday 26 Jan 2015 (Local Time) from KMLU Reporting Station
Clear Clear  
Wind Chill: 38°   Ceiling: Unl
Heat Index: 42°   Visibility: 10mi
Dew Point: 34°   Wind: 7mph
Humidity: 73%   Direction: 300°WNW
Pressure: 30.11"   Gusts: NA
Location:  32.4475°N, 91.7992°W
Report Text: KMLU 260953Z AUTO 30006KT 10SM CLR 06/01 A3011 RMK AO2 SLP195 T00560011 $
Loading
Personal Weather Stations






























Interactive Weather Map New forecast layout! Learn more

10-Day Weather Forecast

Advertisements
Track Severe Weather on mobile